Matsuyama, Japan
Current Conditions -  °F | °C
As of 4:00 PM on Sunday 23 Nov 2014 (Local Time) from RJOM Reporting Station
Broken Clouds Broken Clouds  
Wind Chill: 66°   Ceiling: Unl
Heat Index: 66°   Visibility: 6mi
Dew Point: 39°   Wind: 9mph
Humidity: 37%   Direction: 10°N
Pressure: 30.15"   Gusts: NA
Location:  33.84°N, 132.77°E
Report Text: RJOM 230700Z 01008KT 9999 FEW030 BKN/// 19/04 Q1021
Loading
Personal Weather Stations






























Interactive Weather Map New forecast layout! Learn more

10-Day Weather Forecast

Advertisements
Track Severe Weather on mobile